createdAt,value
2018-06-30T00:00:03.607Z,0.93
2018-06-30T00:02:32.001Z,1.17
2018-06-30T00:05:01.369Z,2.57
2018-06-30T00:07:31.261Z,1.40
2018-06-30T00:10:00.023Z,1.20
2018-06-30T00:12:30.739Z,1.83
2018-06-30T00:14:59.329Z,1.70
2018-06-30T00:17:28.250Z,1.50
2018-06-30T00:19:56.921Z,1.50
2018-06-30T00:22:25.208Z,1.60
2018-06-30T00:24:54.203Z,1.87
2018-06-30T00:27:29.442Z,1.87
2018-06-30T00:29:59.529Z,1.10
2018-06-30T00:32:28.309Z,1.03
2018-06-30T00:34:56.981Z,1.00
2018-06-30T00:37:25.829Z,1.83
2018-06-30T00:39:54.997Z,2.03
2018-06-30T00:42:23.694Z,1.30
2018-06-30T00:44:52.123Z,1.07
2018-06-30T00:47:20.942Z,1.57
2018-06-30T00:49:49.781Z,1.20
2018-06-30T00:52:18.480Z,1.63
2018-06-30T00:54:46.949Z,1.13
2018-06-30T00:57:15.321Z,1.27
2018-06-30T00:59:43.784Z,1.47
2018-06-30T01:02:12.101Z,1.20
2018-06-30T01:04:40.389Z,1.30
2018-06-30T01:07:08.656Z,1.43
2018-06-30T01:09:36.937Z,1.47
2018-06-30T01:12:05.281Z,2.10
2018-06-30T01:14:33.579Z,2.60
2018-06-30T01:17:01.828Z,1.40
2018-06-30T01:19:31.130Z,1.37
2018-06-30T01:21:59.397Z,1.60
2018-06-30T01:24:27.692Z,2.30
2018-06-30T01:26:55.981Z,1.73
2018-06-30T01:29:24.265Z,2.10
2018-06-30T01:31:52.563Z,1.63
2018-06-30T01:34:20.833Z,2.50
2018-06-30T01:36:49.761Z,2.30
2018-06-30T01:39:18.054Z,2.27
2018-06-30T01:41:46.310Z,2.17
2018-06-30T01:44:14.613Z,1.87
2018-06-30T01:46:42.893Z,2.70
2018-06-30T01:49:11.193Z,2.17
2018-06-30T01:51:39.449Z,1.47
2018-06-30T01:54:07.843Z,1.50
2018-06-30T01:56:36.095Z,1.50
2018-06-30T01:59:04.384Z,1.60
2018-06-30T02:01:32.664Z,1.43
2018-06-30T02:04:00.914Z,1.53
2018-06-30T02:06:29.215Z,2.00
2018-06-30T02:08:57.492Z,1.97
2018-06-30T02:11:25.789Z,1.50
2018-06-30T02:13:54.064Z,1.60
2018-06-30T02:16:22.365Z,2.37
2018-06-30T02:18:50.669Z,2.10
2018-06-30T02:21:18.988Z,1.80
2018-06-30T02:23:47.256Z,1.77
2018-06-30T02:26:15.589Z,2.00
2018-06-30T02:28:44.153Z,2.37
2018-06-30T02:31:12.489Z,2.40
2018-06-30T02:33:40.851Z,2.20
2018-06-30T02:36:09.167Z,2.20
2018-06-30T02:38:37.428Z,2.30
2018-06-30T02:41:05.775Z,3.03
2018-06-30T02:43:34.060Z,2.63
2018-06-30T02:46:02.496Z,2.00
2018-06-30T02:48:30.652Z,2.02
2018-06-30T02:50:58.929Z,2.20
2018-06-30T02:53:27.381Z,2.37
2018-06-30T02:55:55.674Z,1.80
2018-06-30T02:58:23.943Z,2.10
2018-06-30T03:00:52.226Z,2.30
2018-06-30T03:03:20.521Z,2.40
2018-06-30T03:05:48.797Z,2.10
2018-06-30T03:08:17.077Z,2.27
2018-06-30T03:10:45.332Z,2.47
2018-06-30T03:13:13.673Z,1.83
2018-06-30T03:15:41.928Z,2.10
2018-06-30T03:18:10.221Z,1.73
2018-06-30T03:20:38.474Z,1.70
2018-06-30T03:23:07.121Z,1.57
2018-06-30T03:25:35.393Z,1.40
2018-06-30T03:28:03.693Z,1.63
2018-06-30T03:30:31.969Z,2.23
2018-06-30T03:33:00.245Z,1.47
2018-06-30T03:35:28.521Z,1.40
2018-06-30T03:37:56.814Z,1.60
2018-06-30T03:40:25.080Z,1.30
2018-06-30T03:42:53.370Z,1.40
2018-06-30T03:45:21.633Z,1.40
2018-06-30T03:47:49.913Z,1.27
2018-06-30T03:50:18.234Z,2.00
2018-06-30T03:52:46.481Z,1.07
2018-06-30T03:55:14.793Z,1.50
2018-06-30T03:57:43.125Z,0.90
2018-06-30T04:00:11.541Z,1.10
2018-06-30T04:02:39.797Z,1.20
2018-06-30T04:05:08.093Z,1.40
2018-06-30T04:07:36.357Z,1.00
2018-06-30T04:10:04.697Z,1.83
2018-06-30T04:12:32.961Z,1.20
2018-06-30T04:15:01.253Z,1.33
2018-06-30T04:17:29.517Z,1.07
2018-06-30T04:19:57.813Z,0.90
2018-06-30T04:22:26.069Z,1.30
2018-06-30T04:24:54.369Z,0.87
2018-06-30T04:27:22.637Z,1.03
2018-06-30T04:29:50.933Z,1.17
2018-06-30T04:32:19.210Z,0.70
2018-06-30T04:34:47.521Z,0.77
2018-06-30T04:37:15.819Z,1.37
2018-06-30T04:39:45.120Z,0.93
2018-06-30T04:42:13.445Z,1.27
2018-06-30T04:44:41.715Z,0.70
2018-06-30T04:47:09.996Z,0.80
2018-06-30T04:49:38.242Z,0.80
2018-06-30T04:52:06.856Z,0.90
2018-06-30T04:54:35.105Z,0.97
2018-06-30T04:57:03.401Z,0.53
2018-06-30T04:59:31.683Z,0.70
2018-06-30T05:01:59.997Z,0.80
2018-06-30T05:04:28.273Z,0.80
2018-06-30T05:06:56.573Z,0.80
2018-06-30T05:09:24.829Z,0.80
2018-06-30T05:11:53.413Z,0.70
2018-06-30T05:14:21.769Z,1.03
2018-06-30T05:16:50.093Z,0.60
2018-06-30T05:19:18.481Z,0.67
2018-06-30T05:21:46.889Z,0.87
2018-06-30T05:24:15.164Z,0.90
2018-06-30T05:26:43.477Z,0.70
2018-06-30T05:29:11.762Z,0.60
2018-06-30T05:31:40.117Z,0.97
2018-06-30T05:34:08.412Z,1.07
2018-06-30T05:36:36.725Z,0.50
2018-06-30T05:39:07.281Z,1.20
2018-06-30T05:41:35.637Z,0.90
2018-06-30T05:44:04.289Z,0.67
2018-06-30T05:46:33.623Z,0.70
2018-06-30T05:49:02.057Z,1.13
2018-06-30T05:51:30.345Z,1.33
2018-06-30T05:53:58.665Z,0.90
2018-06-30T05:56:26.967Z,0.70
2018-06-30T05:58:55.330Z,0.87
2018-06-30T06:01:23.636Z,0.80
2018-06-30T06:03:51.968Z,0.90
2018-06-30T06:06:20.250Z,0.73
2018-06-30T06:08:48.642Z,0.90
2018-06-30T06:11:16.932Z,0.40
2018-06-30T06:13:45.238Z,1.37
2018-06-30T06:16:13.545Z,0.97
2018-06-30T06:18:41.841Z,0.60
2018-06-30T06:21:10.169Z,0.70
2018-06-30T06:23:38.553Z,1.00
2018-06-30T06:26:06.897Z,0.90
2018-06-30T06:28:35.185Z,1.37
2018-06-30T06:31:03.533Z,0.70
2018-06-30T06:33:31.797Z,0.70
2018-06-30T06:36:00.225Z,0.70
2018-06-30T06:38:29.585Z,0.70
2018-06-30T06:40:58.009Z,0.77
2018-06-30T06:43:26.273Z,0.50
2018-06-30T06:45:54.589Z,0.50
2018-06-30T06:48:22.880Z,0.50
2018-06-30T06:50:51.165Z,0.77
2018-06-30T06:53:19.453Z,0.50
2018-06-30T06:55:47.752Z,1.07
2018-06-30T06:58:16.021Z,0.50
2018-06-30T07:00:44.368Z,1.17
2018-06-30T07:03:12.709Z,0.40
2018-06-30T07:05:40.937Z,0.63
2018-06-30T07:08:09.273Z,0.77
2018-06-30T07:10:37.577Z,0.40
2018-06-30T07:13:05.857Z,0.40
2018-06-30T07:15:34.211Z,0.60
2018-06-30T07:18:02.469Z,0.40
2018-06-30T07:20:30.785Z,0.60
2018-06-30T07:22:59.086Z,0.63
2018-06-30T07:25:27.384Z,0.60
2018-06-30T07:27:55.698Z,0.53
2018-06-30T07:30:23.957Z,0.70
2018-06-30T07:32:52.258Z,0.67
2018-06-30T07:35:20.543Z,0.60
2018-06-30T07:37:48.854Z,0.50
2018-06-30T07:40:17.116Z,0.47
2018-06-30T07:42:45.409Z,0.57
2018-06-30T07:45:13.669Z,0.60
2018-06-30T07:47:41.969Z,0.70
2018-06-30T07:50:10.300Z,0.50
2018-06-30T07:52:38.513Z,0.80
2018-06-30T07:55:06.769Z,0.60
2018-06-30T07:57:35.053Z,0.50
2018-06-30T08:00:04.689Z,0.40
2018-06-30T08:02:33.033Z,0.60
2018-06-30T08:05:01.409Z,0.40
2018-06-30T08:07:30.717Z,0.70
2018-06-30T08:09:58.990Z,0.90
2018-06-30T08:12:27.269Z,0.80
2018-06-30T08:14:56.672Z,0.80
2018-06-30T08:17:24.939Z,0.70
2018-06-30T08:19:53.334Z,0.70
2018-06-30T08:22:21.590Z,0.50
2018-06-30T08:24:49.877Z,0.70
2018-06-30T08:27:18.151Z,0.60
2018-06-30T08:29:46.449Z,0.57
2018-06-30T08:32:14.705Z,0.57
2018-06-30T08:34:43.014Z,0.53
2018-06-30T08:37:11.378Z,0.50
2018-06-30T08:39:39.658Z,0.60
2018-06-30T08:42:08.006Z,0.70
2018-06-30T08:44:36.329Z,0.50
2018-06-30T08:47:04.717Z,1.00
2018-06-30T08:49:32.998Z,0.67
2018-06-30T08:52:01.265Z,1.00
2018-06-30T08:54:29.584Z,0.93
2018-06-30T08:56:57.847Z,0.90
2018-06-30T08:59:26.193Z,1.30
2018-06-30T09:01:54.509Z,1.10
2018-06-30T09:04:22.785Z,1.33
2018-06-30T09:06:51.089Z,1.27
2018-06-30T09:09:19.365Z,1.00
2018-06-30T09:11:47.704Z,0.80
2018-06-30T09:14:15.965Z,0.97
2018-06-30T09:16:44.297Z,0.60
2018-06-30T09:19:12.560Z,0.93
2018-06-30T09:21:40.877Z,0.73
2018-06-30T09:24:09.441Z,0.70
2018-06-30T09:26:37.797Z,1.70
2018-06-30T09:29:07.095Z,0.83
2018-06-30T09:31:35.430Z,1.70
2018-06-30T09:34:03.713Z,1.20
2018-06-30T09:36:32.007Z,2.87
2018-06-30T09:39:00.258Z,1.83
2018-06-30T09:41:28.550Z,2.00
2018-06-30T09:43:56.915Z,1.00
2018-06-30T09:46:25.190Z,1.20
2018-06-30T09:48:53.462Z,1.33
2018-06-30T09:51:21.800Z,1.00
2018-06-30T09:53:50.126Z,1.93
2018-06-30T09:56:18.397Z,1.77
2018-06-30T09:58:46.716Z,1.40
2018-06-30T10:01:15.048Z,1.80
2018-06-30T10:03:43.328Z,1.23
2018-06-30T10:06:11.584Z,1.30
2018-06-30T10:08:39.877Z,1.50
2018-06-30T10:11:08.145Z,1.80
2018-06-30T10:13:36.436Z,1.43
2018-06-30T10:16:04.805Z,1.30
2018-06-30T10:18:33.119Z,1.33
2018-06-30T10:21:01.446Z,1.67
2018-06-30T10:23:30.716Z,2.23
2018-06-30T10:25:58.997Z,0.83
2018-06-30T10:28:27.294Z,2.03
2018-06-30T10:30:55.554Z,1.40
2018-06-30T10:33:24.913Z,0.83
2018-06-30T10:35:53.173Z,1.00
2018-06-30T10:38:21.461Z,0.83
2018-06-30T10:40:49.741Z,1.13
2018-06-30T10:43:18.021Z,1.00
2018-06-30T10:45:46.309Z,1.13
2018-06-30T10:48:14.652Z,1.03
2018-06-30T10:50:42.945Z,3.33
2018-06-30T10:53:11.205Z,1.37
2018-06-30T10:55:39.521Z,0.97
2018-06-30T10:58:07.804Z,0.73
2018-06-30T11:00:36.203Z,1.20
2018-06-30T11:03:04.612Z,0.80
2018-06-30T11:05:32.905Z,0.70
2018-06-30T11:08:01.159Z,1.50
2018-06-30T11:10:29.432Z,4.07
2018-06-30T11:12:57.741Z,1.80
2018-06-30T11:15:26.057Z,1.30
2018-06-30T11:17:54.340Z,0.83
2018-06-30T11:20:22.670Z,1.47
2018-06-30T11:22:50.931Z,1.87
2018-06-30T11:25:19.225Z,1.20
2018-06-30T11:27:47.514Z,0.90
2018-06-30T11:30:15.793Z,1.80
2018-06-30T11:32:44.070Z,0.80
2018-06-30T11:35:12.407Z,0.70
2018-06-30T11:37:40.657Z,0.83
2018-06-30T11:40:08.957Z,0.80
2018-06-30T11:42:37.217Z,1.10
2018-06-30T11:45:05.789Z,1.00
2018-06-30T11:47:34.112Z,1.63
2018-06-30T11:50:02.381Z,0.80
2018-06-30T11:52:30.672Z,1.50
2018-06-30T11:54:58.945Z,1.63
2018-06-30T11:57:27.248Z,1.07
2018-06-30T11:59:55.537Z,1.00
2018-06-30T12:02:23.934Z,0.77
2018-06-30T12:04:52.197Z,0.70
2018-06-30T12:07:20.539Z,0.77
2018-06-30T12:09:48.810Z,1.70
2018-06-30T12:12:17.121Z,3.13
2018-06-30T12:14:45.377Z,0.90
2018-06-30T12:17:13.686Z,0.93
2018-06-30T12:19:41.978Z,1.43
2018-06-30T12:22:10.256Z,1.20
2018-06-30T12:24:38.534Z,1.97
2018-06-30T12:27:07.091Z,1.47
2018-06-30T12:29:35.541Z,0.90
2018-06-30T12:32:03.907Z,0.83
2018-06-30T12:34:32.104Z,1.03
2018-06-30T12:37:00.398Z,1.20
2018-06-30T12:39:28.663Z,2.70
2018-06-30T12:41:56.955Z,0.83
2018-06-30T12:44:25.234Z,1.40
2018-06-30T12:46:53.529Z,1.53
2018-06-30T12:49:21.805Z,1.10
2018-06-30T12:51:50.113Z,1.40
2018-06-30T12:54:18.422Z,2.17
2018-06-30T12:56:46.641Z,1.80
2018-06-30T12:59:14.940Z,0.70
2018-06-30T13:01:43.260Z,0.80
2018-06-30T13:04:11.550Z,1.03
2018-06-30T13:06:39.869Z,0.93
2018-06-30T13:09:10.535Z,1.07
2018-06-30T13:11:38.993Z,1.00
2018-06-30T13:14:07.597Z,0.60
2018-06-30T13:16:36.670Z,0.93
2018-06-30T13:19:05.025Z,1.00
2018-06-30T13:21:33.377Z,1.37
2018-06-30T13:24:01.673Z,1.87
2018-06-30T13:26:30.038Z,1.40
2018-06-30T13:28:58.326Z,1.47
2018-06-30T13:31:26.583Z,1.10
2018-06-30T13:33:54.869Z,1.10
2018-06-30T13:36:23.157Z,1.40
2018-06-30T13:38:51.482Z,1.10
2018-06-30T13:41:19.793Z,0.80
2018-06-30T13:43:48.119Z,0.60
2018-06-30T13:46:16.466Z,0.83
2018-06-30T13:48:44.730Z,1.03
2018-06-30T13:51:12.989Z,1.07
2018-06-30T13:53:41.354Z,0.47
2018-06-30T13:56:09.673Z,0.70
2018-06-30T13:58:38.040Z,1.10
2018-06-30T14:01:06.401Z,0.90
2018-06-30T14:03:34.737Z,0.97
2018-06-30T14:06:03.173Z,1.00
2018-06-30T14:08:31.477Z,0.87
2018-06-30T14:10:59.780Z,1.30
2018-06-30T14:13:28.065Z,0.80
2018-06-30T14:15:56.386Z,0.50
2018-06-30T14:18:24.727Z,0.80
2018-06-30T14:20:53.018Z,0.50
2018-06-30T14:23:21.487Z,0.60
2018-06-30T14:25:49.853Z,0.50
2018-06-30T14:28:18.179Z,0.70
2018-06-30T14:30:46.569Z,0.70
2018-06-30T14:33:14.830Z,0.50
2018-06-30T14:35:43.221Z,0.60
2018-06-30T14:38:11.501Z,0.60
2018-06-30T14:40:40.797Z,0.53
2018-06-30T14:43:09.082Z,1.03
2018-06-30T14:45:37.409Z,0.70
2018-06-30T14:48:05.693Z,0.80
2018-06-30T14:50:34.009Z,1.00
2018-06-30T14:53:02.371Z,0.80
2018-06-30T14:55:30.582Z,0.80
2018-06-30T14:57:59.796Z,0.90
2018-06-30T15:00:28.109Z,0.83
2018-06-30T15:02:56.394Z,0.90
2018-06-30T15:05:24.685Z,0.70
2018-06-30T15:07:53.333Z,0.50
2018-06-30T15:10:21.596Z,0.70
2018-06-30T15:12:49.954Z,0.60
2018-06-30T15:15:18.222Z,1.00
2018-06-30T15:17:46.528Z,0.60
2018-06-30T15:20:15.905Z,0.40
2018-06-30T15:22:44.225Z,0.83
2018-06-30T15:25:12.558Z,0.50
2018-06-30T15:27:40.894Z,0.70
2018-06-30T15:30:09.196Z,0.50
2018-06-30T15:32:37.464Z,0.93
2018-06-30T15:35:05.773Z,0.70
2018-06-30T15:37:34.092Z,0.70
2018-06-30T15:40:02.380Z,0.93
2018-06-30T15:42:30.718Z,0.70
2018-06-30T15:44:59.989Z,0.70
2018-06-30T15:47:28.424Z,1.00
2018-06-30T15:49:56.756Z,0.50
2018-06-30T15:52:25.168Z,0.70
2018-06-30T15:54:53.496Z,0.70
2018-06-30T15:57:23.884Z,0.77
2018-06-30T15:59:52.337Z,0.77
2018-06-30T16:02:20.661Z,0.83
2018-06-30T16:04:49.025Z,1.03
2018-06-30T16:07:17.434Z,1.00
2018-06-30T16:09:45.909Z,1.10
2018-06-30T16:12:14.288Z,0.70
2018-06-30T16:14:44.652Z,1.03
2018-06-30T16:17:12.995Z,1.03
2018-06-30T16:19:41.453Z,0.80
2018-06-30T16:22:10.809Z,0.90
2018-06-30T16:24:39.269Z,1.03
2018-06-30T16:27:07.657Z,0.80
2018-06-30T16:29:35.974Z,0.80
2018-06-30T16:32:04.373Z,0.80
2018-06-30T16:34:32.663Z,0.70
2018-06-30T16:37:01.990Z,0.50
2018-06-30T16:39:30.261Z,0.57
2018-06-30T16:41:58.557Z,1.00
2018-06-30T16:44:26.837Z,0.60
2018-06-30T16:46:55.657Z,0.53
2018-06-30T16:49:24.057Z,0.80
2018-06-30T16:51:52.450Z,0.70
2018-06-30T16:54:20.770Z,0.60
2018-06-30T16:56:50.169Z,1.00
2018-06-30T16:59:18.448Z,0.40
2018-06-30T17:01:46.840Z,0.50
2018-06-30T17:04:15.146Z,1.00
2018-06-30T17:06:43.422Z,0.50
2018-06-30T17:09:13.436Z,0.53
2018-06-30T17:11:42.161Z,1.10
2018-06-30T17:14:14.292Z,0.50
2018-06-30T17:16:56.369Z,0.87
2018-06-30T17:19:25.010Z,0.60
2018-06-30T17:21:53.351Z,0.70
2018-06-30T17:24:22.684Z,0.60
2018-06-30T17:26:51.102Z,0.80
2018-06-30T17:29:19.485Z,0.67
2018-06-30T17:31:47.805Z,0.60
2018-06-30T17:34:16.173Z,0.57
2018-06-30T17:36:44.497Z,0.50
2018-06-30T17:39:12.840Z,0.40
2018-06-30T17:42:44.148Z,0.90
2018-06-30T17:45:12.525Z,0.47
2018-06-30T17:47:40.810Z,1.03
2018-06-30T17:50:09.165Z,0.60
2018-06-30T17:52:38.547Z,0.90
2018-06-30T17:55:07.133Z,1.30
2018-06-30T17:57:35.385Z,0.60
2018-06-30T18:00:03.777Z,1.40
2018-06-30T18:02:32.108Z,0.60
2018-06-30T18:05:00.421Z,0.70
2018-06-30T18:07:28.692Z,0.97
2018-06-30T18:09:56.983Z,1.03
2018-06-30T18:12:25.259Z,0.90
2018-06-30T18:14:53.539Z,0.87
2018-06-30T18:17:21.821Z,1.37
2018-06-30T18:19:50.389Z,0.90
2018-06-30T18:22:18.627Z,0.73
2018-06-30T18:24:46.921Z,0.60
2018-06-30T18:27:16.296Z,0.50
2018-06-30T18:29:44.577Z,0.83
2018-06-30T18:32:12.885Z,0.80
2018-06-30T18:34:41.157Z,1.00
2018-06-30T18:37:09.465Z,1.50
2018-06-30T18:39:37.720Z,0.53
2018-06-30T18:42:06.031Z,0.60
2018-06-30T18:44:34.343Z,0.60
2018-06-30T18:47:02.629Z,0.60
2018-06-30T18:49:30.885Z,0.87
2018-06-30T18:51:59.216Z,0.70
2018-06-30T18:54:27.480Z,0.63
2018-06-30T18:56:55.810Z,1.00
2018-06-30T18:59:24.097Z,1.33
2018-06-30T19:01:52.433Z,1.43
2018-06-30T19:04:20.733Z,0.80
2018-06-30T19:06:49.029Z,0.80
2018-06-30T19:09:17.291Z,0.80
2018-06-30T19:11:45.609Z,0.60
2018-06-30T19:14:13.866Z,1.17
2018-06-30T19:16:42.165Z,1.73
2018-06-30T19:19:11.441Z,1.23
2018-06-30T19:21:39.733Z,0.70
2018-06-30T19:24:08.009Z,1.40
2018-06-30T19:26:36.276Z,1.73
2018-06-30T19:29:04.582Z,1.10
2018-06-30T19:31:32.833Z,2.17
2018-06-30T19:34:01.125Z,1.00
2018-06-30T19:36:29.514Z,1.40
2018-06-30T19:38:57.784Z,1.17
2018-06-30T19:41:26.048Z,1.00
2018-06-30T19:43:54.341Z,0.97
2018-06-30T19:46:22.590Z,0.90
2018-06-30T19:48:50.874Z,1.30
2018-06-30T19:51:19.125Z,3.47
2018-06-30T19:53:47.397Z,1.77
2018-06-30T19:56:15.649Z,1.60
2018-06-30T19:58:43.921Z,1.50
2018-06-30T20:01:12.255Z,2.00
2018-06-30T20:03:40.672Z,1.73
2018-06-30T20:06:08.956Z,2.20
2018-06-30T20:08:37.572Z,1.60
2018-06-30T20:11:05.845Z,1.47
2018-06-30T20:13:34.213Z,1.80
2018-06-30T20:16:02.649Z,2.10
2018-06-30T20:18:30.908Z,1.60
2018-06-30T20:20:59.449Z,2.40
2018-06-30T20:23:27.729Z,1.97
2018-06-30T20:25:56.008Z,2.20
2018-06-30T20:28:24.253Z,2.53
2018-06-30T20:30:52.533Z,2.10
2018-06-30T20:33:21.373Z,2.03
2018-06-30T20:35:49.657Z,2.30
2018-06-30T20:38:17.929Z,2.60
2018-06-30T20:40:46.237Z,2.40
2018-06-30T20:43:14.496Z,2.77
2018-06-30T20:45:44.014Z,2.50
2018-06-30T20:48:12.281Z,2.00
2018-06-30T20:50:40.683Z,2.67
2018-06-30T20:53:08.970Z,2.10
2018-06-30T20:55:37.324Z,2.63
2018-06-30T20:58:06.181Z,3.67
2018-06-30T21:00:34.498Z,2.37
2018-06-30T21:03:02.846Z,2.63
2018-06-30T21:05:31.321Z,2.37
2018-06-30T21:07:59.641Z,3.00
2018-06-30T21:10:28.057Z,3.00
2018-06-30T21:12:56.328Z,2.97
2018-06-30T21:15:24.573Z,2.80
2018-06-30T21:17:52.910Z,2.60
2018-06-30T21:20:21.185Z,2.50
2018-06-30T21:22:49.484Z,2.43
2018-06-30T21:25:17.789Z,2.90
2018-06-30T21:27:46.078Z,2.63
2018-06-30T21:30:14.592Z,2.73
2018-06-30T21:32:42.989Z,2.93
2018-06-30T21:35:11.271Z,3.80
2018-06-30T21:37:39.855Z,3.93
2018-06-30T21:40:08.141Z,3.40
2018-06-30T21:42:36.495Z,3.53
2018-06-30T21:45:05.077Z,3.17
2018-06-30T21:47:33.385Z,3.00
2018-06-30T21:50:01.683Z,3.23
2018-06-30T21:52:29.993Z,3.40
2018-06-30T21:54:58.257Z,3.37
2018-06-30T21:57:26.608Z,3.03
2018-06-30T21:59:54.925Z,3.23
2018-06-30T22:02:23.237Z,2.90
2018-06-30T22:04:51.542Z,3.23
2018-06-30T22:07:19.810Z,3.53
2018-06-30T22:09:48.129Z,3.43
2018-06-30T22:12:16.609Z,2.90
2018-06-30T22:14:44.909Z,3.43
2018-06-30T22:17:13.233Z,3.47
2018-06-30T22:19:41.541Z,3.20
2018-06-30T22:22:09.809Z,3.50
2018-06-30T22:24:38.189Z,3.33
2018-06-30T22:27:06.481Z,3.73
2018-06-30T22:29:34.852Z,3.00
2018-06-30T22:32:03.236Z,2.97
2018-06-30T22:34:31.505Z,3.17
2018-06-30T22:37:00.889Z,4.33
2018-06-30T22:40:36.373Z,3.90
2018-06-30T22:43:05.100Z,3.90
2018-06-30T22:45:33.392Z,4.03
2018-06-30T22:48:01.658Z,3.47
2018-06-30T22:50:29.985Z,4.07
2018-06-30T22:52:58.304Z,3.53
2018-06-30T22:55:26.598Z,3.90
2018-06-30T22:57:54.912Z,4.03
2018-06-30T23:00:23.208Z,3.93
2018-06-30T23:02:51.550Z,4.03
2018-06-30T23:05:19.835Z,4.70
2018-06-30T23:07:48.160Z,3.80
2018-06-30T23:10:16.581Z,3.47
2018-06-30T23:12:45.437Z,4.00
2018-06-30T23:15:13.739Z,3.20
2018-06-30T23:17:42.188Z,3.75
2018-06-30T23:20:10.413Z,3.50
2018-06-30T23:22:52.773Z,3.03
2018-06-30T23:25:21.025Z,3.27
2018-06-30T23:27:49.314Z,3.93
2018-06-30T23:30:17.566Z,3.10
2018-06-30T23:32:45.856Z,3.20
2018-06-30T23:35:14.158Z,2.87
2018-06-30T23:37:42.464Z,3.17
2018-06-30T23:40:10.841Z,3.07
2018-06-30T23:42:39.128Z,2.87
2018-06-30T23:45:07.417Z,2.37
2018-06-30T23:47:35.746Z,2.40
2018-06-30T23:50:04.117Z,2.20
2018-06-30T23:52:32.382Z,2.50
2018-06-30T23:55:00.673Z,2.10
2018-06-30T23:57:28.949Z,2.57
2018-06-30T23:59:57.229Z,2.87
